Terminal Aerodrome Forecast
Issued by NWS

Home | Current Version | Previous Version | Graphics & Text | Print | Product List | Glossary On
Versions: 1 2 3 4 5 6 7 8 9 10 11 12 13 14 15 16 17 18 19 20 21
000
FTUS43 KGRB 201000 AAC
TAFAUW
TAF AMD
KAUW 201057Z 2011/2106 22009KT P6SM SCT020 BKN035
     FM201500 26009G15KT P6SM BKN020
     FM201800 27011G18KT P6SM SCT025 SCT100
     FM210100 24003KT P6SM SCT025 BKN040
      TEMPO 2102/2106 4SM -SHRA BR BKN015=

USA.gov is the U.S. government's official web portal to all federal, state and local government web resources and services.